This is the latest recevied weather packets stored in our database for station/object KO4LCK. If no packets are shown the sender has not sent any weather packets the latest 10 day(s).
| Time | Temp. | Humidity | Pressure | Rain* | Wind** | Luminosity | Snow |
|---|---|---|---|---|---|---|---|
| 1788287346 | 36.67° C | 44% | 1020 hPa | 0 mm | - | 781 W/m² | - |
| 1788287041 | 36.67° C | 45% | 1020.3 hPa | 0 mm | - | 772 W/m² | - |
| 1788286736 | 35.56° C | 44% | 1020.1 hPa | 0 mm | - | 765 W/m² | - |
| 1788286436 | 35° C | 43% | 1020.4 hPa | 0 mm | - | 766 W/m² | - |
| 1788286135 | 36.11° C | 42% | 1020.3 hPa | 0 mm | - | 764 W/m² | - |
| 1788285834 | 36.11° C | 44% | 1020.5 hPa | 0 mm | - | 768 W/m² | - |
| 1788285534 | 35° C | 45% | 1020.5 hPa | 0 mm | - | 762 W/m² | - |
| 1788285234 | 36.11° C | 42% | 1020.5 hPa | 0 mm | - | 772 W/m² | - |
| 1788284929 | 36.67° C | 42% | 1020.6 hPa | 0 mm | - | 774 W/m² | - |
| 1788284626 | 36.11° C | 44% | 1020.6 hPa | 0 mm | - | 768 W/m² | - |
| 1788284321 | 35.56° C | 43% | 1020.7 hPa | 0 mm | - | 775 W/m² | - |
| 1788284021 | 35.56° C | 45% | 1021 hPa | 0 mm | - | 772 W/m² | - |
| 1788283718 | 35.56° C | 46% | 1021 hPa | 0 mm | - | 764 W/m² | - |
| 1788283417 | 35° C | 46% | 1020.9 hPa | 0 mm | - | 766 W/m² | - |
| 1788283110 | 34.44° C | 47% | 1021 hPa | 0 mm | - | 765 W/m² | - |
| 1788282809 | 35° C | 44% | 1021.1 hPa | 0 mm | - | 759 W/m² | - |
| 1788282508 | 35° C | 45% | 1021.4 hPa | 0 mm | - | 760 W/m² | - |
| 1788282203 | 35° C | 48% | 1021.3 hPa | 0 mm | - | 748 W/m² | - |
| 1788281901 | 35° C | 46% | 1021.4 hPa | 0 mm | - | 748 W/m² | - |
| 1788281596 | 35° C | 49% | 1021.4 hPa | 0 mm | - | 739 W/m² | - |
| 1788281293 | 33.89° C | 48% | 1021.5 hPa | 0 mm | - | 739 W/m² | - |
| 1788280988 | 33.89° C | 47% | 1021.6 hPa | 0 mm | - | 733 W/m² | - |
| 1788280683 | 34.44° C | 47% | 1021.7 hPa | 0 mm | - | 728 W/m² | - |
| 1788280382 | 34.44° C | 50% | 1021.8 hPa | 0 mm | - | 718 W/m² | - |
| 1788280078 | 33.89° C | 50% | 1021.8 hPa | 0 mm | - | 712 W/m² | - |
* Rain latest hour (hover to see other rain measurements)
** Current wind speed in m/s (hover to see current wind gust speed)